Estación Meteorológica Peña el Pijo (Robertgarden) [ 11/17/17 23:52:34 CET ]

Fecha Hora Presion(HPa) Temp (°C) Humedad % Rocio (°C) Viento ( m/s) Direccion Lluvia 1Hora(mm) Lluvia 24H(mm) LLuvia Total(mm)
2017-Aug-03 01:01:56 1014.200 20.8 67 14.4         1437.96
2017-Aug-03 02:01:49 1013.700 19.9 71 14.5         1437.96
2017-Aug-03 03:01:11 1013.400 19.3 73 14.3         1437.96
2017-Aug-03 04:01:16 1013.200 18.1 71 12.8         1437.96
2017-Aug-03 05:01:16 1013.200 16.3 68 10.4         1437.96
2017-Aug-03 06:01:14 1013.400 16.5 60 8.8         1437.96
2017-Aug-03 07:01:56 1013.600 15.8 58 7.6         1437.96
2017-Aug-03 08:01:37 1013.500 16.4 55 7.3         1437.96
2017-Aug-03 09:01:44 1013.600 22.3 50 11.4         1437.96
2017-Aug-03 10:01:45 1013.800 29.2 38 13.4         1437.96
2017-Aug-03 11:01:39 1013.700 35.5 26 12.8         1437.96
2017-Aug-03 12:01:44 1013.500 36.2 21 10.4         1437.96
2017-Aug-03 13:01:50 1013.500 37.8 19 10.0         1437.96
2017-Aug-03 14:01:35 1013.000 39.5 18 10.4         1437.96
2017-Aug-03 15:01:51 1012.400 39.6 19 11.4         1437.96
2017-Aug-03 16:01:47 1011.900 40.3 17 10.0         1437.96
2017-Aug-03 17:01:46 1011.600 41.1 16 9.6         1437.96
2017-Aug-03 18:01:39 1011.400 39.4 15 7.3         1437.96
2017-Aug-03 19:01:43 1011.300 38.4 17 8.5         1437.96
2017-Aug-03 20:01:36 1011.500 35.1 14 2.9         1437.96
2017-Aug-03 21:01:55 1012.100 28.9 19 2.8         1437.96
2017-Aug-03 22:02:09 1012.900 23.9 28 4.2         1437.96
2017-Aug-03 23:01:42 1013.800 21.6 31 3.8         1437.96

Temperatura Máxima:41°    Temperatura Mínima:15°
Presión Máxima:1014.200 Hpa    Presión Mínima:1011.300 Hpa


Volver